createdAt,value
2017-07-29T00:01:50.148Z,18.40
2017-07-29T00:04:18.412Z,18.40
2017-07-29T00:06:46.624Z,18.40
2017-07-29T00:09:14.074Z,18.40
2017-07-29T00:11:41.515Z,18.30
2017-07-29T00:14:08.993Z,18.20
2017-07-29T00:16:37.204Z,18.10
2017-07-29T00:19:04.627Z,18.10
2017-07-29T00:21:32.087Z,18.10
2017-07-29T00:23:59.528Z,18.10
2017-07-29T00:26:26.973Z,18.20
2017-07-29T00:28:54.452Z,18.20
2017-07-29T00:31:21.925Z,18.20
2017-07-29T00:33:50.143Z,18.30
2017-07-29T00:36:17.602Z,18.30
2017-07-29T00:38:45.058Z,18.30
2017-07-29T00:41:12.489Z,18.30
2017-07-29T00:43:39.940Z,18.30
2017-07-29T00:46:07.367Z,18.40
2017-07-29T00:48:34.826Z,18.30
2017-07-29T00:51:03.063Z,18.30
2017-07-29T00:53:32.028Z,18.30
2017-07-29T00:55:59.460Z,18.30
2017-07-29T00:58:26.939Z,18.30
2017-07-29T01:00:54.395Z,18.30
2017-07-29T01:03:21.812Z,18.20
2017-07-29T01:05:49.262Z,18.20
2017-07-29T01:08:16.703Z,18.20
2017-07-29T01:10:44.162Z,18.20
2017-07-29T01:13:11.603Z,18.10
2017-07-29T01:15:39.059Z,18.10
2017-07-29T01:18:07.253Z,18.00
2017-07-29T01:20:34.720Z,18.00
2017-07-29T01:23:02.177Z,18.10
2017-07-29T01:28:03.687Z,18.00
2017-07-29T01:30:31.123Z,18.00
2017-07-29T01:32:58.564Z,17.90
2017-07-29T01:35:25.999Z,17.90
2017-07-29T01:37:53.440Z,17.90
2017-07-29T01:40:20.874Z,17.80
2017-07-29T01:42:48.336Z,17.80
2017-07-29T01:45:15.892Z,17.80
2017-07-29T01:47:43.320Z,17.80
2017-07-29T01:50:10.780Z,17.70
2017-07-29T01:52:38.220Z,17.70
2017-07-29T01:55:05.664Z,17.70
2017-07-29T01:57:33.116Z,17.70
2017-07-29T02:00:00.565Z,17.70
2017-07-29T02:02:28.109Z,17.70
2017-07-29T02:04:55.568Z,17.70
2017-07-29T02:07:23.025Z,17.60
2017-07-29T02:09:51.214Z,17.60
2017-07-29T02:12:18.669Z,17.60
2017-07-29T02:14:46.109Z,17.60
2017-07-29T02:17:13.562Z,17.50
2017-07-29T02:19:40.989Z,17.50
2017-07-29T02:22:08.446Z,17.40
2017-07-29T02:24:35.872Z,17.40
2017-07-29T02:27:03.329Z,17.30
2017-07-29T02:29:30.755Z,17.30
2017-07-29T02:31:58.192Z,17.20
2017-07-29T02:34:25.664Z,17.20
2017-07-29T02:36:53.099Z,17.20
2017-07-29T02:39:20.590Z,17.20
2017-07-29T02:41:48.029Z,17.10
2017-07-29T02:44:15.493Z,17.00
2017-07-29T02:46:43.696Z,17.00
2017-07-29T02:49:11.241Z,16.90
2017-07-29T02:51:38.679Z,17.00
2017-07-29T02:54:06.117Z,17.00
2017-07-29T02:56:33.561Z,17.00
2017-07-29T02:59:00.997Z,17.00
2017-07-29T03:01:28.492Z,16.90
2017-07-29T03:03:56.687Z,16.70
2017-07-29T03:06:24.136Z,16.70
2017-07-29T03:08:51.564Z,16.70
2017-07-29T03:11:19.033Z,16.70
2017-07-29T03:13:46.493Z,16.70
2017-07-29T03:16:13.925Z,16.70
2017-07-29T03:18:41.385Z,16.60
2017-07-29T03:21:08.812Z,16.70
2017-07-29T03:23:36.264Z,16.60
2017-07-29T03:26:03.700Z,16.60
2017-07-29T03:28:31.140Z,16.60
2017-07-29T03:30:58.585Z,16.50
2017-07-29T03:33:26.068Z,16.60
2017-07-29T03:35:53.530Z,16.60
2017-07-29T03:38:20.967Z,16.60
2017-07-29T03:40:48.411Z,16.50
2017-07-29T03:43:15.845Z,16.40
2017-07-29T03:45:43.288Z,16.40
2017-07-29T03:48:11.510Z,16.40
2017-07-29T03:50:38.936Z,16.40
2017-07-29T03:53:06.385Z,16.40
2017-07-29T03:55:33.829Z,16.40
2017-07-29T03:58:01.273Z,16.40
2017-07-29T04:00:28.722Z,16.40
2017-07-29T04:02:56.169Z,16.40
2017-07-29T04:05:23.594Z,16.40
2017-07-29T04:07:51.041Z,16.40
2017-07-29T04:10:18.486Z,16.40
2017-07-29T04:12:45.936Z,16.40
2017-07-29T04:15:13.370Z,16.40
2017-07-29T04:17:40.847Z,16.40
2017-07-29T04:20:08.288Z,16.30
2017-07-29T04:22:35.716Z,16.30
2017-07-29T04:25:03.160Z,16.40
2017-07-29T04:27:30.611Z,16.40
2017-07-29T04:29:58.049Z,16.50
2017-07-29T04:32:25.494Z,16.50
2017-07-29T04:34:52.981Z,16.50
2017-07-29T04:37:20.406Z,16.60
2017-07-29T04:39:47.933Z,16.70
2017-07-29T04:42:16.193Z,16.90
2017-07-29T04:44:43.737Z,16.90
2017-07-29T04:47:11.188Z,17.00
2017-07-29T04:49:38.620Z,17.10
2017-07-29T04:52:06.077Z,17.20
2017-07-29T04:54:33.531Z,17.30
2017-07-29T04:57:00.981Z,17.30
2017-07-29T04:59:28.425Z,17.30
2017-07-29T05:01:55.852Z,17.40
2017-07-29T05:04:24.065Z,17.60
2017-07-29T05:06:51.515Z,17.60
2017-07-29T05:09:18.949Z,17.60
2017-07-29T05:11:46.438Z,17.60
2017-07-29T05:14:14.669Z,17.80
2017-07-29T05:16:42.121Z,17.70
2017-07-29T05:19:09.559Z,17.80
2017-07-29T05:21:37.033Z,17.80
2017-07-29T05:24:04.475Z,17.80
2017-07-29T05:26:31.930Z,17.90
2017-07-29T05:28:59.378Z,18.00
2017-07-29T05:31:26.837Z,18.00
2017-07-29T05:33:54.281Z,18.10
2017-07-29T05:36:21.719Z,18.30
2017-07-29T05:38:49.171Z,18.60
2017-07-29T05:41:16.604Z,18.80
2017-07-29T05:43:44.064Z,18.90
2017-07-29T05:46:11.519Z,19.00
2017-07-29T05:48:38.984Z,19.20
2017-07-29T05:51:06.458Z,19.50
2017-07-29T05:53:33.895Z,19.90
2017-07-29T05:56:01.339Z,20.30
2017-07-29T05:58:28.777Z,20.80
2017-07-29T06:00:56.253Z,21.20
2017-07-29T06:03:23.697Z,21.70
2017-07-29T06:05:51.196Z,22.10
2017-07-29T06:08:19.412Z,22.90
2017-07-29T06:10:46.842Z,22.80
2017-07-29T06:13:14.289Z,23.10
2017-07-29T06:15:41.736Z,23.50
2017-07-29T06:18:09.187Z,23.80
2017-07-29T06:20:36.612Z,24.10
2017-07-29T06:23:04.065Z,24.30
2017-07-29T06:25:31.496Z,24.60
2017-07-29T06:27:59.047Z,24.70
2017-07-29T06:30:26.493Z,24.60
2017-07-29T06:32:53.920Z,24.90
2017-07-29T06:35:21.367Z,24.90
2017-07-29T06:37:48.807Z,25.20
2017-07-29T06:40:16.248Z,25.60
2017-07-29T06:42:43.706Z,25.80
2017-07-29T06:45:11.123Z,26.10
2017-07-29T06:47:38.583Z,26.40
2017-07-29T06:50:06.069Z,26.80
2017-07-29T06:52:33.498Z,27.00
2017-07-29T06:55:00.934Z,27.10
2017-07-29T06:57:28.375Z,27.30
2017-07-29T06:59:55.811Z,27.60
2017-07-29T07:02:23.260Z,27.70
2017-07-29T07:04:50.692Z,28.00
2017-07-29T07:07:18.136Z,28.30
2017-07-29T07:09:45.577Z,28.20
2017-07-29T07:12:13.041Z,28.20
2017-07-29T07:14:40.677Z,28.20
2017-07-29T07:17:08.154Z,27.80
2017-07-29T07:19:36.392Z,28.40
2017-07-29T07:22:03.831Z,28.30
2017-07-29T07:24:31.288Z,28.70
2017-07-29T07:26:58.728Z,28.90
2017-07-29T07:29:26.984Z,29.20
2017-07-29T07:31:54.436Z,29.20
2017-07-29T07:34:22.664Z,29.80
2017-07-29T07:36:50.109Z,29.70
2017-07-29T07:39:17.565Z,30.00
2017-07-29T07:41:45.000Z,30.20
2017-07-29T07:44:12.432Z,30.30
2017-07-29T07:46:39.880Z,30.00
2017-07-29T07:49:07.330Z,30.20
2017-07-29T07:51:34.768Z,30.40
2017-07-29T07:54:02.194Z,29.90
2017-07-29T07:56:29.675Z,29.80
2017-07-29T07:58:57.904Z,30.00
2017-07-29T08:01:25.472Z,29.90
2017-07-29T08:03:52.925Z,30.20
2017-07-29T08:06:20.369Z,30.30
2017-07-29T08:08:47.914Z,30.40
2017-07-29T08:11:15.361Z,30.50
2017-07-29T08:13:43.642Z,30.40
2017-07-29T08:16:11.876Z,30.30
2017-07-29T08:18:39.435Z,30.30
2017-07-29T08:21:06.865Z,30.50
2017-07-29T08:23:34.305Z,30.50
2017-07-29T08:26:01.756Z,30.40
2017-07-29T08:28:29.989Z,30.00
2017-07-29T08:30:57.525Z,29.90
2017-07-29T08:33:24.955Z,30.00
2017-07-29T08:35:52.444Z,29.90
2017-07-29T08:38:20.661Z,30.40
2017-07-29T08:40:48.152Z,30.40
2017-07-29T08:43:15.595Z,30.10
2017-07-29T08:45:43.806Z,30.30
2017-07-29T08:48:11.243Z,30.30
2017-07-29T08:50:38.763Z,29.80
2017-07-29T08:53:06.201Z,29.70
2017-07-29T08:55:33.645Z,29.90
2017-07-29T08:58:01.128Z,30.20
2017-07-29T09:00:28.562Z,30.70
2017-07-29T09:02:56.012Z,30.30
2017-07-29T09:05:23.470Z,30.80
2017-07-29T09:07:50.916Z,31.30
2017-07-29T09:10:19.467Z,31.40
2017-07-29T09:12:46.907Z,31.30
2017-07-29T09:15:14.350Z,31.30
2017-07-29T09:17:41.790Z,31.50
2017-07-29T09:20:09.225Z,31.60
2017-07-29T09:22:36.675Z,32.00
2017-07-29T09:25:04.101Z,31.60
2017-07-29T09:27:31.541Z,31.00
2017-07-29T09:29:58.975Z,30.50
2017-07-29T09:32:26.439Z,30.40
2017-07-29T09:34:53.884Z,30.40
2017-07-29T09:37:21.335Z,30.50
2017-07-29T09:39:48.770Z,30.70
2017-07-29T09:42:16.328Z,30.40
2017-07-29T09:44:43.759Z,30.30
2017-07-29T09:47:11.199Z,30.70
2017-07-29T09:49:39.529Z,31.10
2017-07-29T09:52:06.965Z,31.40
2017-07-29T09:54:35.179Z,30.70
2017-07-29T09:57:02.615Z,30.70
2017-07-29T09:59:30.081Z,30.70
2017-07-29T10:01:57.537Z,30.90
2017-07-29T10:04:25.020Z,31.00
2017-07-29T10:06:52.453Z,30.60
2017-07-29T10:09:19.887Z,30.90
2017-07-29T10:11:48.098Z,30.50
2017-07-29T10:14:15.545Z,30.50
2017-07-29T10:16:42.993Z,30.50
2017-07-29T10:19:10.432Z,30.70
2017-07-29T10:21:37.893Z,30.90
2017-07-29T10:24:05.349Z,31.00
2017-07-29T10:26:33.578Z,31.70
2017-07-29T10:29:01.426Z,31.60
2017-07-29T10:31:28.868Z,31.60
2017-07-29T10:33:56.326Z,31.80
2017-07-29T10:36:23.769Z,31.50
2017-07-29T10:38:51.215Z,31.60
2017-07-29T10:41:18.672Z,31.80
2017-07-29T10:43:46.900Z,32.70
2017-07-29T10:46:14.335Z,32.60
2017-07-29T10:48:41.780Z,33.00
2017-07-29T10:51:09.237Z,32.80
2017-07-29T10:53:36.693Z,33.00
2017-07-29T10:56:04.135Z,32.80
2017-07-29T10:58:31.605Z,32.10
2017-07-29T11:00:59.113Z,31.40
2017-07-29T11:03:27.781Z,30.20
2017-07-29T11:05:55.241Z,30.20
2017-07-29T11:08:22.684Z,29.50
2017-07-29T11:10:50.252Z,29.30
2017-07-29T11:13:18.455Z,28.90
2017-07-29T11:15:45.884Z,28.90
2017-07-29T11:18:13.362Z,28.70
2017-07-29T11:20:40.784Z,28.90
2017-07-29T11:23:08.230Z,28.90
2017-07-29T11:25:35.679Z,28.80
2017-07-29T11:28:03.211Z,28.70
2017-07-29T11:30:30.648Z,28.70
2017-07-29T11:32:58.092Z,28.70
2017-07-29T11:35:25.526Z,28.50
2017-07-29T11:37:52.967Z,28.40
2017-07-29T11:40:20.458Z,28.20
2017-07-29T11:42:48.707Z,28.10
2017-07-29T11:45:16.151Z,28.10
2017-07-29T11:47:43.580Z,28.20
2017-07-29T11:50:11.053Z,28.40
2017-07-29T11:52:39.247Z,28.60
2017-07-29T11:55:06.680Z,28.50
2017-07-29T11:57:34.141Z,28.40
2017-07-29T12:00:01.589Z,28.10
2017-07-29T12:02:29.977Z,28.10
2017-07-29T12:04:57.915Z,28.10
2017-07-29T12:07:25.339Z,28.20
2017-07-29T12:09:52.769Z,28.10
2017-07-29T12:12:20.234Z,28.00
2017-07-29T12:14:47.668Z,27.90
2017-07-29T12:17:15.112Z,27.60
2017-07-29T12:19:42.578Z,27.50
2017-07-29T12:22:10.033Z,27.30
2017-07-29T12:24:37.511Z,27.20
2017-07-29T12:27:05.716Z,27.10
2017-07-29T12:29:33.164Z,27.10
2017-07-29T12:32:00.604Z,27.00
2017-07-29T12:34:28.047Z,27.00
2017-07-29T12:36:55.483Z,27.00
2017-07-29T12:39:22.961Z,26.90
2017-07-29T12:41:50.396Z,26.80
2017-07-29T12:44:17.833Z,26.80
2017-07-29T12:46:45.260Z,26.80
2017-07-29T12:49:12.702Z,26.70
2017-07-29T12:51:40.149Z,26.60
2017-07-29T12:54:07.577Z,26.60
2017-07-29T12:56:35.073Z,26.50
2017-07-29T12:59:03.280Z,26.60
2017-07-29T13:01:30.773Z,26.50
2017-07-29T13:03:58.222Z,26.60
2017-07-29T13:06:26.435Z,26.50
2017-07-29T13:08:53.920Z,26.50
2017-07-29T13:11:21.352Z,26.50
2017-07-29T13:13:48.819Z,26.60
2017-07-29T13:16:17.026Z,26.30
2017-07-29T13:18:44.542Z,26.20
2017-07-29T13:21:11.998Z,26.20
2017-07-29T13:23:39.469Z,26.10
2017-07-29T13:26:06.909Z,26.10
2017-07-29T13:28:34.377Z,26.20
2017-07-29T13:31:01.833Z,26.30
2017-07-29T13:33:30.040Z,26.40
2017-07-29T13:35:57.486Z,26.40
2017-07-29T13:38:25.045Z,26.50
2017-07-29T13:40:52.489Z,26.50
2017-07-29T13:43:19.925Z,26.30
2017-07-29T13:45:47.375Z,26.40
2017-07-29T13:48:14.826Z,26.50
2017-07-29T13:50:42.279Z,26.50
2017-07-29T13:53:09.794Z,26.50
2017-07-29T13:55:37.225Z,26.50
2017-07-29T13:58:04.664Z,26.60
2017-07-29T14:00:32.169Z,26.80
2017-07-29T14:03:00.376Z,26.90
2017-07-29T14:05:27.819Z,26.90
2017-07-29T14:07:55.479Z,27.00
2017-07-29T14:10:22.904Z,27.20
2017-07-29T14:12:50.360Z,27.30
2017-07-29T14:15:18.480Z,27.30
2017-07-29T14:17:45.997Z,27.40
2017-07-29T14:20:14.248Z,27.50
2017-07-29T14:22:41.683Z,27.50
2017-07-29T14:25:09.137Z,27.60
2017-07-29T14:27:36.576Z,27.60
2017-07-29T14:30:04.022Z,27.70
2017-07-29T14:32:31.454Z,27.80
2017-07-29T14:34:58.932Z,27.80
2017-07-29T14:37:27.145Z,28.00
2017-07-29T14:39:54.580Z,27.90
2017-07-29T14:42:22.018Z,28.00
2017-07-29T14:44:49.457Z,28.00
2017-07-29T14:47:16.888Z,28.10
2017-07-29T14:49:44.328Z,28.10
2017-07-29T14:52:11.784Z,28.10
2017-07-29T14:54:39.220Z,28.00
2017-07-29T14:57:06.664Z,27.90
2017-07-29T14:59:34.123Z,27.80
2017-07-29T15:02:01.553Z,27.80
2017-07-29T15:04:28.994Z,27.80
2017-07-29T15:06:56.440Z,27.80
2017-07-29T15:09:23.880Z,27.90
2017-07-29T15:11:51.302Z,28.00
2017-07-29T15:14:18.760Z,28.10
2017-07-29T15:16:46.187Z,28.20
2017-07-29T15:19:13.676Z,28.30
2017-07-29T15:21:41.140Z,28.40
2017-07-29T15:24:08.550Z,28.50
2017-07-29T15:26:35.982Z,28.50
2017-07-29T15:29:03.421Z,28.40
2017-07-29T15:31:30.885Z,28.30
2017-07-29T15:33:58.320Z,28.30
2017-07-29T15:36:25.784Z,28.30
2017-07-29T15:38:53.217Z,28.30
2017-07-29T15:41:20.681Z,28.40
2017-07-29T15:43:48.898Z,28.40
2017-07-29T15:46:16.352Z,28.30
2017-07-29T15:48:43.860Z,28.40
2017-07-29T15:51:11.312Z,28.30
2017-07-29T15:53:38.908Z,28.20
2017-07-29T15:56:06.341Z,28.10
2017-07-29T15:58:33.788Z,28.10
2017-07-29T16:01:01.245Z,28.20
2017-07-29T16:03:29.494Z,28.20
2017-07-29T16:05:56.933Z,28.20
2017-07-29T16:08:24.356Z,28.20
2017-07-29T16:10:51.804Z,28.10
2017-07-29T16:13:19.251Z,28.10
2017-07-29T16:15:46.736Z,28.00
2017-07-29T16:18:14.992Z,28.10
2017-07-29T16:20:42.433Z,28.10
2017-07-29T16:23:10.645Z,28.00
2017-07-29T16:25:38.119Z,28.00
2017-07-29T16:28:05.562Z,28.00
2017-07-29T16:30:33.136Z,27.90
2017-07-29T16:33:01.357Z,27.90
2017-07-29T16:35:28.814Z,27.90
2017-07-29T16:37:56.271Z,27.80
2017-07-29T16:40:24.581Z,27.70
2017-07-29T16:42:52.027Z,27.60
2017-07-29T16:45:19.464Z,27.70
2017-07-29T16:47:46.928Z,27.60
2017-07-29T16:50:14.372Z,27.60
2017-07-29T16:52:42.853Z,27.50
2017-07-29T16:55:10.510Z,27.40
2017-07-29T16:57:39.261Z,27.20
2017-07-29T17:00:06.697Z,27.30
2017-07-29T17:02:34.136Z,27.20
2017-07-29T17:05:01.600Z,27.10
2017-07-29T17:07:29.039Z,27.00
2017-07-29T17:09:56.485Z,26.90
2017-07-29T17:12:24.042Z,26.80
2017-07-29T17:14:52.251Z,26.80
2017-07-29T17:17:19.731Z,26.80
2017-07-29T17:19:47.164Z,26.70
2017-07-29T17:22:14.641Z,26.70
2017-07-29T17:24:42.838Z,26.60
2017-07-29T17:27:10.272Z,26.60
2017-07-29T17:29:37.773Z,26.60
2017-07-29T17:32:06.024Z,26.60
2017-07-29T17:34:33.462Z,26.50
2017-07-29T17:37:00.900Z,26.50
2017-07-29T17:39:28.453Z,26.50
2017-07-29T17:41:55.896Z,26.50
2017-07-29T17:44:23.332Z,26.40
2017-07-29T17:46:50.805Z,26.30
2017-07-29T17:49:19.060Z,26.20
2017-07-29T17:51:47.274Z,26.20
2017-07-29T17:54:14.716Z,26.20
2017-07-29T17:56:42.189Z,26.20
2017-07-29T17:59:09.633Z,26.10
2017-07-29T18:01:37.085Z,26.10
2017-07-29T18:04:05.340Z,26.10
2017-07-29T18:06:32.812Z,26.00
2017-07-29T18:09:00.335Z,26.00
2017-07-29T18:11:28.545Z,25.90
2017-07-29T18:13:55.999Z,25.90
2017-07-29T18:16:23.583Z,25.90
2017-07-29T18:18:51.781Z,25.80
2017-07-29T18:21:19.289Z,25.80
2017-07-29T18:23:47.561Z,25.80
2017-07-29T18:26:15.101Z,25.80
2017-07-29T18:28:43.308Z,25.70
2017-07-29T18:31:10.747Z,25.70
2017-07-29T18:33:38.202Z,25.70
2017-07-29T18:36:05.693Z,25.60
2017-07-29T18:38:33.940Z,25.60
2017-07-29T18:41:01.454Z,25.60
2017-07-29T18:43:29.052Z,25.60
2017-07-29T18:45:57.256Z,25.50
2017-07-29T18:48:24.708Z,25.50
2017-07-29T18:50:52.145Z,25.50
2017-07-29T18:53:19.614Z,25.40
2017-07-29T18:55:47.057Z,25.30
2017-07-29T18:58:14.712Z,25.30
2017-07-29T19:00:42.247Z,25.20
2017-07-29T19:03:09.733Z,25.20
2017-07-29T19:05:37.169Z,25.10
2017-07-29T19:08:04.604Z,25.10
2017-07-29T19:10:32.046Z,25.00
2017-07-29T19:13:00.266Z,24.80
2017-07-29T19:15:27.842Z,24.80
2017-07-29T19:17:56.076Z,24.70
2017-07-29T19:20:23.701Z,24.70
2017-07-29T19:22:51.170Z,24.60
2017-07-29T19:25:18.628Z,24.60
2017-07-29T19:27:46.056Z,24.60
2017-07-29T19:30:13.501Z,24.50
2017-07-29T19:32:40.984Z,24.50
2017-07-29T19:35:08.437Z,24.40
2017-07-29T19:37:35.913Z,24.30
2017-07-29T19:40:03.363Z,24.20
2017-07-29T19:42:30.813Z,24.10
2017-07-29T19:44:58.243Z,24.10
2017-07-29T19:47:25.711Z,24.10
2017-07-29T19:49:53.903Z,23.90
2017-07-29T19:52:21.417Z,23.90
2017-07-29T19:54:48.852Z,23.90
2017-07-29T19:57:16.285Z,23.80
2017-07-29T19:59:43.725Z,23.80
2017-07-29T20:02:11.157Z,23.70
2017-07-29T20:04:38.616Z,23.60
2017-07-29T20:07:06.057Z,23.60
2017-07-29T20:09:33.515Z,23.50
2017-07-29T20:12:01.045Z,23.50
2017-07-29T20:14:28.502Z,23.50
2017-07-29T20:16:55.935Z,23.40
2017-07-29T20:19:23.377Z,23.30
2017-07-29T20:21:50.824Z,23.20
2017-07-29T20:24:18.280Z,23.20
2017-07-29T20:26:46.490Z,23.10
2017-07-29T20:29:13.988Z,23.10
2017-07-29T20:31:42.610Z,23.10
2017-07-29T20:34:10.149Z,23.10
2017-07-29T20:36:37.636Z,23.10
2017-07-29T20:39:05.072Z,23.00
2017-07-29T20:41:32.583Z,23.00
2017-07-29T20:44:00.037Z,23.00
2017-07-29T20:46:27.461Z,23.00
2017-07-29T20:48:54.968Z,22.90
2017-07-29T20:51:23.392Z,22.90
2017-07-29T20:53:50.862Z,22.80
2017-07-29T20:56:18.303Z,22.80
2017-07-29T20:58:45.733Z,22.80
2017-07-29T21:01:13.237Z,22.80
2017-07-29T21:03:40.667Z,22.70
2017-07-29T21:06:08.100Z,22.70
2017-07-29T21:08:35.544Z,22.60
2017-07-29T21:11:03.063Z,22.50
2017-07-29T21:13:31.301Z,22.50
2017-07-29T21:15:58.750Z,22.40
2017-07-29T21:18:26.210Z,22.40
2017-07-29T21:20:54.417Z,22.40
2017-07-29T21:23:21.873Z,22.40
2017-07-29T21:25:49.308Z,22.40
2017-07-29T21:28:16.769Z,22.40
2017-07-29T21:30:44.224Z,22.40
2017-07-29T21:33:11.663Z,22.30
2017-07-29T21:35:39.144Z,22.30
2017-07-29T21:38:07.335Z,22.30
2017-07-29T21:40:34.771Z,22.20
2017-07-29T21:43:02.211Z,22.20
2017-07-29T21:45:29.707Z,22.20
2017-07-29T21:47:57.136Z,22.20
2017-07-29T21:50:24.577Z,22.20
2017-07-29T21:52:52.115Z,22.20
2017-07-29T21:55:19.552Z,22.10
2017-07-29T21:57:46.984Z,22.10
2017-07-29T22:00:14.424Z,22.00
2017-07-29T22:02:41.908Z,22.00
2017-07-29T22:05:09.353Z,21.90
2017-07-29T22:07:36.775Z,21.90
2017-07-29T22:10:04.229Z,21.90
2017-07-29T22:12:31.684Z,21.90
2017-07-29T22:14:59.880Z,21.90
2017-07-29T22:17:27.317Z,21.80
2017-07-29T22:19:54.821Z,21.80
2017-07-29T22:22:22.249Z,21.80
2017-07-29T22:24:49.694Z,21.80
2017-07-29T22:27:17.135Z,21.80
2017-07-29T22:29:44.585Z,21.80
2017-07-29T22:32:12.140Z,21.70
2017-07-29T22:34:39.589Z,21.70
2017-07-29T22:37:07.070Z,21.70
2017-07-29T22:39:34.548Z,21.70
2017-07-29T22:42:01.991Z,21.60
2017-07-29T22:44:29.557Z,21.50
2017-07-29T22:46:57.774Z,21.50
2017-07-29T22:49:25.264Z,21.40
2017-07-29T22:51:53.475Z,21.40
2017-07-29T22:54:20.928Z,21.40
2017-07-29T22:56:48.374Z,21.40
2017-07-29T22:59:15.817Z,21.40
2017-07-29T23:01:43.408Z,21.30
2017-07-29T23:04:11.603Z,21.10
2017-07-29T23:06:39.044Z,21.10
2017-07-29T23:09:06.484Z,21.00
2017-07-29T23:11:33.948Z,21.10
2017-07-29T23:14:01.401Z,21.00
2017-07-29T23:16:28.880Z,21.00
2017-07-29T23:18:57.093Z,21.00
2017-07-29T23:21:25.471Z,21.00
2017-07-29T23:23:52.902Z,20.90
2017-07-29T23:26:20.385Z,20.80
2017-07-29T23:28:47.918Z,20.70
2017-07-29T23:31:15.357Z,20.60
2017-07-29T23:33:42.905Z,20.60
2017-07-29T23:36:10.328Z,20.50
2017-07-29T23:38:37.873Z,20.50
2017-07-29T23:41:05.312Z,20.50
2017-07-29T23:43:32.779Z,20.50
2017-07-29T23:46:00.220Z,20.50
2017-07-29T23:48:27.658Z,20.50
2017-07-29T23:50:55.092Z,20.50
2017-07-29T23:53:22.548Z,20.50
2017-07-29T23:55:49.985Z,20.50
2017-07-29T23:58:17.440Z,20.50
